createdAt,value
2023-02-19T00:00:55.623Z,24.25
2023-02-19T00:03:22.615Z,23.35
2023-02-19T00:05:49.586Z,25.27
2023-02-19T00:08:17.045Z,23.80
2023-02-19T00:10:45.405Z,22.65
2023-02-19T00:13:12.428Z,23.60
2023-02-19T00:15:39.427Z,23.73
2023-02-19T00:18:06.490Z,22.90
2023-02-19T00:20:33.509Z,24.25
2023-02-19T00:23:00.486Z,23.80
2023-02-19T00:25:27.409Z,23.50
2023-02-19T00:27:55.839Z,23.75
2023-02-19T00:30:22.827Z,22.07
2023-02-19T00:32:51.261Z,24.20
2023-02-19T00:35:18.347Z,24.42
2023-02-19T00:37:45.316Z,22.88
2023-02-19T00:40:12.359Z,21.48
2023-02-19T00:42:39.369Z,21.43
2023-02-19T00:45:08.367Z,22.17
2023-02-19T00:47:35.392Z,21.25
2023-02-19T00:50:03.408Z,21.50
2023-02-19T00:52:32.275Z,23.58
2023-02-19T00:54:59.264Z,23.23
2023-02-19T00:57:26.328Z,22.15
2023-02-19T00:59:53.381Z,24.10
2023-02-19T01:02:21.822Z,23.63
2023-02-19T01:04:48.947Z,22.95
2023-02-19T01:07:15.908Z,22.33
2023-02-19T01:09:42.958Z,21.42
2023-02-19T01:12:10.498Z,22.40
2023-02-19T01:14:37.529Z,23.27
2023-02-19T01:17:04.594Z,23.38
2023-02-19T01:19:32.985Z,22.97
2023-02-19T01:21:59.983Z,22.60
2023-02-19T01:24:27.029Z,21.77
2023-02-19T01:26:54.443Z,23.23
2023-02-19T01:29:21.396Z,21.42
2023-02-19T01:31:48.534Z,21.87
2023-02-19T01:34:15.465Z,20.13
2023-02-19T01:36:43.863Z,22.83
2023-02-19T01:39:11.080Z,21.30
2023-02-19T01:41:39.595Z,23.20
2023-02-19T01:44:11.462Z,21.53
2023-02-19T01:46:39.023Z,21.88
2023-02-19T01:49:07.593Z,21.15
2023-02-19T01:51:36.248Z,20.65
2023-02-19T01:54:06.384Z,20.95
2023-02-19T01:56:34.778Z,22.13
2023-02-19T01:59:02.145Z,21.80
2023-02-19T02:01:29.145Z,23.77
2023-02-19T02:03:56.165Z,32.72
2023-02-19T02:06:24.729Z,33.35
2023-02-19T02:09:11.671Z,32.37
2023-02-19T02:11:42.564Z,31.48
2023-02-19T02:14:09.558Z,28.35
2023-02-19T02:16:41.942Z,27.20
2023-02-19T02:19:18.026Z,27.20
2023-02-19T02:21:54.166Z,26.70
2023-02-19T02:24:32.200Z,28.02
2023-02-19T02:27:10.831Z,27.77
2023-02-19T02:30:11.175Z,28.00
2023-02-19T02:32:42.812Z,28.38
2023-02-19T02:35:11.465Z,28.40
2023-02-19T02:37:40.850Z,27.33
2023-02-19T02:40:08.618Z,28.23
2023-02-19T02:42:35.619Z,27.27
2023-02-19T02:45:35.295Z,25.52
2023-02-19T02:48:06.227Z,25.67
2023-02-19T02:50:35.924Z,23.90
2023-02-19T02:53:23.705Z,24.17
2023-02-19T02:55:52.209Z,22.67
2023-02-19T02:58:20.171Z,23.80
2023-02-19T03:01:09.073Z,23.20
2023-02-19T03:03:39.706Z,23.77
2023-02-19T03:06:09.343Z,21.73
2023-02-19T03:08:38.414Z,21.58
2023-02-19T03:11:24.754Z,23.17
2023-02-19T03:14:11.519Z,20.70
2023-02-19T03:16:59.329Z,21.45
2023-02-19T03:19:29.070Z,22.73
2023-02-19T03:21:57.827Z,22.77
2023-02-19T03:24:45.706Z,21.75
2023-02-19T03:27:13.830Z,20.43
2023-02-19T03:29:41.302Z,21.65
2023-02-19T03:32:11.173Z,21.52
2023-02-19T03:34:42.682Z,22.27
2023-02-19T03:37:11.849Z,20.73
2023-02-19T03:39:44.594Z,21.63
2023-02-19T03:42:16.862Z,21.05
2023-02-19T03:44:46.533Z,20.58
2023-02-19T03:47:16.130Z,21.80
2023-02-19T03:49:48.656Z,20.88
2023-02-19T03:52:19.163Z,21.93
2023-02-19T03:54:48.435Z,21.25
2023-02-19T03:57:19.244Z,20.92
2023-02-19T03:59:49.076Z,20.70
2023-02-19T04:02:18.700Z,19.27
2023-02-19T04:04:50.744Z,19.77
2023-02-19T04:07:18.064Z,20.30
2023-02-19T04:09:47.098Z,19.40
2023-02-19T04:12:15.054Z,20.35
2023-02-19T04:14:44.114Z,22.17
2023-02-19T04:17:14.359Z,22.35
2023-02-19T04:19:42.380Z,21.80
2023-02-19T04:22:12.441Z,19.58
2023-02-19T04:24:40.704Z,21.02
2023-02-19T04:27:09.150Z,20.33
2023-02-19T04:29:39.033Z,19.13
2023-02-19T04:32:06.457Z,19.83
2023-02-19T04:34:33.402Z,18.67
2023-02-19T04:37:00.333Z,19.15
2023-02-19T04:39:29.088Z,18.90
2023-02-19T04:41:56.057Z,19.30
2023-02-19T04:44:23.390Z,18.65
2023-02-19T04:46:50.387Z,17.90
2023-02-19T04:49:17.381Z,17.83
2023-02-19T04:51:44.528Z,17.15
2023-02-19T04:54:11.470Z,17.83
2023-02-19T04:56:39.889Z,19.45
2023-02-19T04:59:06.995Z,18.00
2023-02-19T05:01:34.130Z,17.17
2023-02-19T05:04:01.152Z,17.40
2023-02-19T05:06:28.313Z,17.43
2023-02-19T05:08:55.778Z,17.73
2023-02-19T05:11:24.008Z,16.77
2023-02-19T05:13:52.392Z,17.52
2023-02-19T05:16:19.369Z,18.23
2023-02-19T05:18:46.977Z,21.37
2023-02-19T05:21:14.254Z,20.10
2023-02-19T05:23:41.258Z,19.95
2023-02-19T05:26:09.160Z,19.35
2023-02-19T05:28:36.243Z,19.30
2023-02-19T05:31:07.044Z,19.67
2023-02-19T05:33:34.188Z,17.25
2023-02-19T05:36:04.804Z,17.45
2023-02-19T05:38:31.666Z,17.65
2023-02-19T05:41:07.051Z,16.80
2023-02-19T05:43:34.076Z,16.87
2023-02-19T05:46:01.078Z,17.33
2023-02-19T05:48:29.687Z,16.27
2023-02-19T05:51:01.191Z,17.15
2023-02-19T05:53:28.212Z,16.35
2023-02-19T05:55:55.174Z,17.17
2023-02-19T05:58:22.329Z,17.15
2023-02-19T06:00:49.451Z,15.07
2023-02-19T06:03:16.433Z,15.05
2023-02-19T06:05:44.934Z,14.80
2023-02-19T06:08:13.084Z,16.05
2023-02-19T06:10:43.143Z,14.75
2023-02-19T06:13:10.596Z,15.13
2023-02-19T06:15:37.684Z,15.18
2023-02-19T06:18:04.867Z,16.35
2023-02-19T06:20:33.106Z,15.73
2023-02-19T06:23:01.753Z,17.33
2023-02-19T06:25:28.674Z,17.38
2023-02-19T06:27:55.730Z,16.65
2023-02-19T06:30:22.758Z,15.35
2023-02-19T06:32:51.555Z,15.60
2023-02-19T06:35:18.575Z,16.42
2023-02-19T06:37:46.581Z,16.50
2023-02-19T06:40:15.060Z,16.88
2023-02-19T06:42:43.014Z,16.73
2023-02-19T06:45:09.922Z,16.30
2023-02-19T06:47:36.876Z,17.02
2023-02-19T06:50:04.068Z,17.00
2023-02-19T06:52:31.570Z,17.52
2023-02-19T06:54:58.514Z,16.27
2023-02-19T06:57:26.851Z,17.27
2023-02-19T06:59:53.920Z,17.05
2023-02-19T07:02:21.034Z,16.92
2023-02-19T07:04:48.085Z,16.90
2023-02-19T07:07:15.108Z,19.15
2023-02-19T07:09:43.998Z,26.50
2023-02-19T07:12:11.078Z,28.90
2023-02-19T07:14:39.422Z,22.33
2023-02-19T07:17:06.419Z,18.90
2023-02-19T07:19:33.834Z,17.17
2023-02-19T07:22:01.408Z,19.27
2023-02-19T07:24:28.529Z,19.85
2023-02-19T07:26:55.474Z,20.80
2023-02-19T07:29:22.697Z,19.05
2023-02-19T07:31:51.070Z,18.63
2023-02-19T07:34:18.131Z,18.17
2023-02-19T07:36:45.100Z,18.95
2023-02-19T07:39:13.320Z,18.33
2023-02-19T07:41:40.785Z,18.00
2023-02-19T07:44:08.013Z,17.98
2023-02-19T07:46:34.937Z,20.10
2023-02-19T07:49:03.344Z,24.50
2023-02-19T07:51:30.327Z,23.00
2023-02-19T07:53:57.671Z,24.35
2023-02-19T07:56:24.636Z,29.52
2023-02-19T07:58:51.681Z,34.17
2023-02-19T08:01:19.578Z,31.30
2023-02-19T08:03:48.873Z,29.48
2023-02-19T08:06:18.737Z,24.35
2023-02-19T08:08:45.792Z,26.15
2023-02-19T08:11:31.258Z,23.60
2023-02-19T08:13:58.417Z,24.85
2023-02-19T08:16:40.789Z,25.40
2023-02-19T08:19:09.349Z,28.25
2023-02-19T08:21:37.848Z,29.13
2023-02-19T08:24:05.283Z,26.03
2023-02-19T08:26:32.761Z,23.95
2023-02-19T08:28:59.823Z,22.15
2023-02-19T08:31:27.361Z,20.98
2023-02-19T08:33:54.842Z,21.90
2023-02-19T08:36:21.814Z,21.57
2023-02-19T08:38:50.202Z,22.50
2023-02-19T08:41:22.627Z,22.95
2023-02-19T08:43:49.862Z,21.38
2023-02-19T08:46:16.847Z,21.65
2023-02-19T08:48:43.813Z,22.07
2023-02-19T08:51:12.387Z,20.60
2023-02-19T08:53:40.523Z,22.02
2023-02-19T08:56:10.168Z,20.00
2023-02-19T08:58:37.638Z,21.25
2023-02-19T09:01:08.310Z,20.07
2023-02-19T09:03:35.750Z,21.75
2023-02-19T09:06:02.713Z,22.13
2023-02-19T09:08:29.667Z,24.75
2023-02-19T09:11:00.384Z,26.55
2023-02-19T09:13:28.714Z,25.30
2023-02-19T09:15:57.302Z,23.65
2023-02-19T09:18:25.050Z,23.35
2023-02-19T09:20:52.042Z,28.67
2023-02-19T09:23:19.148Z,27.50
2023-02-19T09:25:46.125Z,28.97
2023-02-19T09:28:13.098Z,21.27
2023-02-19T09:30:41.496Z,20.95
2023-02-19T09:33:08.533Z,23.23
2023-02-19T09:35:38.250Z,23.10
2023-02-19T09:38:05.232Z,19.33
2023-02-19T09:40:32.426Z,19.65
2023-02-19T09:43:00.907Z,19.50
2023-02-19T09:45:29.316Z,18.15
2023-02-19T09:47:59.095Z,27.25
2023-02-19T09:50:28.660Z,20.53
2023-02-19T09:52:58.204Z,23.25
2023-02-19T09:55:30.190Z,43.58
2023-02-19T09:57:58.152Z,39.47
2023-02-19T10:00:25.977Z,23.05
2023-02-19T10:02:53.935Z,22.40
2023-02-19T10:05:23.573Z,22.88
2023-02-19T10:07:52.116Z,21.73
2023-02-19T10:10:22.760Z,21.35
2023-02-19T10:12:51.224Z,21.05
2023-02-19T10:15:19.699Z,18.37
2023-02-19T10:17:46.641Z,19.80
2023-02-19T10:20:15.054Z,18.85
2023-02-19T10:22:43.648Z,18.98
2023-02-19T10:25:14.004Z,18.40
2023-02-19T10:27:41.138Z,18.07
2023-02-19T10:30:14.605Z,15.93
2023-02-19T10:32:57.753Z,15.40
2023-02-19T10:35:25.100Z,14.00
2023-02-19T10:37:53.828Z,13.32
2023-02-19T10:40:21.710Z,12.90
2023-02-19T10:42:49.824Z,14.25
2023-02-19T10:45:21.785Z,15.68
2023-02-19T10:47:49.382Z,14.27
2023-02-19T10:50:20.697Z,13.55
2023-02-19T10:52:51.404Z,13.93
2023-02-19T10:55:25.852Z,13.27
2023-02-19T10:57:53.060Z,12.23
2023-02-19T11:00:22.981Z,12.65
2023-02-19T11:02:50.558Z,13.07
2023-02-19T11:05:20.078Z,13.03
2023-02-19T11:07:48.266Z,12.18
2023-02-19T11:10:28.306Z,13.05
2023-02-19T11:12:57.594Z,11.27
2023-02-19T11:15:27.620Z,11.65
2023-02-19T11:17:55.625Z,12.40
2023-02-19T11:20:22.855Z,13.57
2023-02-19T11:22:50.285Z,12.48
2023-02-19T11:25:21.404Z,12.63
2023-02-19T11:28:02.705Z,11.75
2023-02-19T11:30:40.118Z,10.20
2023-02-19T11:33:24.515Z,11.18
2023-02-19T11:35:52.631Z,12.10
2023-02-19T11:38:21.727Z,12.55
2023-02-19T11:40:53.449Z,11.57
2023-02-19T11:43:38.326Z,14.13
2023-02-19T11:46:09.899Z,12.23
2023-02-19T11:48:43.409Z,11.82
2023-02-19T11:51:16.070Z,12.25
2023-02-19T11:53:47.494Z,13.27
2023-02-19T11:56:17.085Z,11.73
2023-02-19T11:59:05.388Z,11.80
2023-02-19T12:01:43.975Z,11.93
2023-02-19T12:04:24.134Z,11.75
2023-02-19T12:06:53.655Z,11.48
2023-02-19T12:09:35.565Z,11.13
2023-02-19T12:12:09.315Z,12.30
2023-02-19T12:14:50.643Z,10.02
2023-02-19T12:17:24.882Z,15.80
2023-02-19T12:19:58.153Z,12.48
2023-02-19T12:22:28.139Z,12.53
2023-02-19T12:25:13.769Z,12.50
2023-02-19T12:27:47.477Z,12.23
2023-02-19T12:30:25.433Z,12.07
2023-02-19T12:33:18.695Z,11.88
2023-02-19T12:35:47.906Z,10.83
2023-02-19T12:38:20.895Z,26.95
2023-02-19T12:40:55.724Z,17.30
2023-02-19T12:43:23.765Z,10.73
2023-02-19T12:45:53.466Z,8.50
2023-02-19T12:48:25.232Z,7.90
2023-02-19T12:50:55.639Z,8.27
2023-02-19T12:53:32.041Z,9.13
2023-02-19T12:56:00.705Z,9.00
2023-02-19T12:58:32.424Z,8.38
2023-02-19T13:00:59.970Z,8.43
2023-02-19T13:03:31.027Z,8.98
2023-02-19T13:06:01.920Z,8.25
2023-02-19T13:08:34.185Z,6.90
2023-02-19T13:11:05.486Z,7.20
2023-02-19T13:13:38.590Z,6.77
2023-02-19T13:16:10.142Z,4.63
2023-02-19T13:18:41.342Z,5.72
2023-02-19T13:21:11.759Z,6.50
2023-02-19T13:24:00.017Z,7.28
2023-02-19T13:26:43.397Z,6.77
2023-02-19T13:29:16.179Z,7.68
2023-02-19T13:31:51.231Z,7.07
2023-02-19T13:34:25.966Z,7.53
2023-02-19T13:36:53.770Z,6.20
2023-02-19T13:39:22.011Z,4.70
2023-02-19T13:41:50.594Z,5.35
2023-02-19T13:44:18.973Z,6.03
2023-02-19T13:46:47.010Z,5.25
2023-02-19T13:49:44.040Z,5.80
2023-02-19T13:52:29.344Z,4.70
2023-02-19T13:55:11.441Z,5.35
2023-02-19T13:57:41.762Z,5.90
2023-02-19T14:00:37.923Z,5.13
2023-02-19T14:03:20.413Z,6.05
2023-02-19T14:06:01.008Z,5.83
2023-02-19T14:08:42.844Z,4.93
2023-02-19T14:11:14.330Z,4.68
2023-02-19T14:14:09.648Z,4.78
2023-02-19T14:16:54.697Z,3.42
2023-02-19T14:19:40.524Z,3.90
2023-02-19T14:22:22.502Z,20.38
2023-02-19T14:24:52.724Z,4.38
2023-02-19T14:27:20.051Z,4.65
2023-02-19T14:29:49.741Z,3.40
2023-02-19T14:32:19.427Z,3.17
2023-02-19T14:34:46.697Z,4.10
2023-02-19T14:37:17.129Z,4.35
2023-02-19T14:39:44.809Z,4.05
2023-02-19T14:42:16.042Z,4.18
2023-02-19T14:44:47.529Z,4.43
2023-02-19T14:47:15.703Z,5.40
2023-02-19T14:49:46.279Z,4.55
2023-02-19T14:52:15.962Z,5.22
2023-02-19T14:54:45.361Z,5.85
2023-02-19T14:57:16.157Z,6.50
2023-02-19T14:59:52.280Z,7.20
2023-02-19T15:02:21.266Z,5.47
2023-02-19T15:04:48.645Z,4.25
2023-02-19T15:07:19.227Z,5.53
2023-02-19T15:09:48.235Z,6.30
2023-02-19T15:12:18.861Z,5.80
2023-02-19T15:14:46.450Z,5.28
2023-02-19T15:17:16.198Z,5.57
2023-02-19T15:19:44.178Z,5.43
2023-02-19T15:22:14.168Z,6.20
2023-02-19T15:24:44.029Z,10.30
2023-02-19T15:27:15.615Z,5.15
2023-02-19T15:29:46.690Z,8.35
2023-02-19T15:32:16.591Z,7.18
2023-02-19T15:34:53.495Z,7.33
2023-02-19T15:37:22.121Z,6.53
2023-02-19T15:39:50.650Z,6.00
2023-02-19T15:42:18.468Z,6.00
2023-02-19T15:44:49.664Z,4.13
2023-02-19T15:47:20.042Z,5.43
2023-02-19T15:49:50.214Z,6.90
2023-02-19T15:52:20.900Z,4.85
2023-02-19T15:54:51.579Z,6.95
2023-02-19T15:57:21.568Z,6.40
2023-02-19T15:59:50.987Z,5.93
2023-02-19T16:02:18.308Z,5.82
2023-02-19T16:04:45.646Z,30.05
2023-02-19T16:07:23.303Z,10.77
2023-02-19T16:10:04.481Z,6.22
2023-02-19T16:12:32.606Z,5.60
2023-02-19T16:15:11.406Z,5.50
2023-02-19T16:17:42.204Z,6.43
2023-02-19T16:20:17.356Z,0.93
2023-02-19T16:22:44.838Z,1.10
2023-02-19T16:25:23.826Z,1.03
2023-02-19T16:27:51.731Z,1.80
2023-02-19T16:30:27.005Z,2.40
2023-02-19T16:33:12.878Z,1.30
2023-02-19T16:35:40.221Z,0.98
2023-02-19T16:38:12.446Z,1.60
2023-02-19T16:41:04.166Z,0.52
2023-02-19T16:43:37.809Z,0.45
2023-02-19T16:46:07.702Z,0.80
2023-02-19T16:48:34.868Z,0.85
2023-02-19T16:51:03.091Z,1.03
2023-02-19T16:53:30.636Z,0.80
2023-02-19T16:55:57.927Z,1.35
2023-02-19T16:58:25.069Z,1.27
2023-02-19T17:00:57.530Z,1.73
2023-02-19T17:03:26.370Z,6.93
2023-02-19T17:05:54.015Z,4.35
2023-02-19T17:08:25.286Z,3.72
2023-02-19T17:10:54.058Z,1.15
2023-02-19T17:13:22.837Z,2.85
2023-02-19T17:15:50.425Z,1.47
2023-02-19T17:18:17.610Z,1.10
2023-02-19T17:20:48.620Z,1.67
2023-02-19T17:23:15.973Z,1.88
2023-02-19T17:25:43.470Z,0.60
2023-02-19T17:28:10.804Z,0.67
2023-02-19T17:30:40.122Z,0.80
2023-02-19T17:33:07.698Z,1.08
2023-02-19T17:35:35.022Z,1.00
2023-02-19T17:38:09.593Z,0.82
2023-02-19T17:40:37.610Z,0.80
2023-02-19T17:43:04.985Z,1.40
2023-02-19T17:45:33.030Z,1.00
2023-02-19T17:48:00.308Z,0.75
2023-02-19T17:50:29.314Z,1.23
2023-02-19T17:52:56.348Z,0.90
2023-02-19T17:55:25.442Z,0.50
2023-02-19T17:57:53.256Z,0.40
2023-02-19T18:00:21.524Z,1.02
2023-02-19T18:02:49.141Z,0.40
2023-02-19T18:05:16.494Z,0.40
2023-02-19T18:07:43.882Z,1.63
2023-02-19T18:10:11.825Z,0.75
2023-02-19T18:12:42.797Z,0.98
2023-02-19T18:15:11.916Z,0.55
2023-02-19T18:17:39.197Z,0.70
2023-02-19T18:20:07.354Z,0.93
2023-02-19T18:22:34.901Z,0.50
2023-02-19T18:25:02.092Z,0.50
2023-02-19T18:27:34.155Z,0.50
2023-02-19T18:30:02.981Z,0.40
2023-02-19T18:32:30.822Z,0.40
2023-02-19T18:34:59.173Z,0.63
2023-02-19T18:37:27.221Z,1.20
2023-02-19T18:39:54.657Z,0.50
2023-02-19T18:42:22.534Z,0.50
2023-02-19T18:44:50.341Z,0.85
2023-02-19T18:47:19.834Z,0.68
2023-02-19T18:49:49.591Z,0.52
2023-02-19T18:52:20.471Z,0.40
2023-02-19T18:54:47.610Z,0.30
2023-02-19T18:57:15.527Z,0.30
2023-02-19T18:59:45.176Z,0.20
2023-02-19T19:02:12.512Z,0.30
2023-02-19T19:04:41.978Z,0.30
2023-02-19T19:07:10.334Z,0.50
2023-02-19T19:09:37.757Z,0.40
2023-02-19T19:12:05.765Z,0.40
2023-02-19T19:14:32.896Z,0.30
2023-02-19T19:17:00.456Z,0.32
2023-02-19T19:19:27.693Z,0.57
2023-02-19T19:21:56.877Z,0.50
2023-02-19T19:24:24.891Z,0.20
2023-02-19T19:26:52.643Z,0.30
2023-02-19T19:29:22.176Z,0.22
2023-02-19T19:31:50.128Z,0.30
2023-02-19T19:34:17.778Z,0.43
2023-02-19T19:36:45.332Z,0.30
2023-02-19T19:39:14.222Z,0.20
2023-02-19T19:41:41.748Z,0.30
2023-02-19T19:44:09.350Z,0.40
2023-02-19T19:46:42.767Z,0.20
2023-02-19T19:49:10.248Z,0.25
2023-02-19T19:51:38.044Z,0.30
2023-02-19T19:54:05.533Z,0.40
2023-02-19T19:56:39.663Z,0.40
2023-02-19T19:59:06.961Z,0.30
2023-02-19T20:01:34.366Z,0.40
2023-02-19T20:04:02.174Z,0.20
2023-02-19T20:06:31.100Z,0.20
2023-02-19T20:08:58.631Z,0.20
2023-02-19T20:11:26.118Z,0.20
2023-02-19T20:13:54.471Z,0.20
2023-02-19T20:16:25.508Z,0.20
2023-02-19T20:18:53.308Z,0.22
2023-02-19T20:21:20.587Z,0.20
2023-02-19T20:23:47.964Z,0.20
2023-02-19T20:26:21.118Z,0.30
2023-02-19T20:28:48.430Z,0.30
2023-02-19T20:31:17.455Z,0.40
2023-02-19T20:33:44.955Z,0.30
2023-02-19T20:36:12.199Z,0.22
2023-02-19T20:38:39.758Z,0.40
2023-02-19T20:41:07.057Z,0.40
2023-02-19T20:43:34.713Z,0.20
2023-02-19T20:46:02.024Z,0.30
2023-02-19T20:48:30.685Z,0.40
2023-02-19T20:50:59.719Z,0.30
2023-02-19T20:53:27.239Z,0.43
2023-02-19T20:55:55.461Z,0.20
2023-02-19T20:58:22.692Z,0.30
2023-02-19T21:00:49.835Z,0.40
2023-02-19T21:03:16.993Z,0.40
2023-02-19T21:05:45.849Z,0.35
2023-02-19T21:08:14.137Z,0.40
2023-02-19T21:10:41.579Z,0.30
2023-02-19T21:13:08.770Z,0.40
2023-02-19T21:15:35.875Z,0.40
2023-02-19T21:18:05.164Z,0.40
2023-02-19T21:20:32.600Z,0.30
2023-02-19T21:23:02.007Z,0.40
2023-02-19T21:25:31.517Z,0.30
2023-02-19T21:27:58.515Z,0.40
2023-02-19T21:30:25.623Z,0.40
2023-02-19T21:32:52.945Z,0.30
2023-02-19T21:35:20.156Z,0.23
2023-02-19T21:37:47.202Z,0.40
2023-02-19T21:40:16.054Z,0.30
2023-02-19T21:42:43.292Z,0.35
2023-02-19T21:45:10.343Z,0.30
2023-02-19T21:47:37.611Z,0.40
2023-02-19T21:50:05.529Z,0.50
2023-02-19T21:52:33.080Z,0.40
2023-02-19T21:55:00.040Z,0.38
2023-02-19T21:57:28.940Z,0.35
2023-02-19T21:59:55.918Z,0.40
2023-02-19T22:02:22.924Z,0.40
2023-02-19T22:04:56.218Z,0.50
2023-02-19T22:07:23.344Z,0.40
2023-02-19T22:09:51.725Z,0.28
2023-02-19T22:12:19.257Z,0.30
2023-02-19T22:14:47.622Z,0.30
2023-02-19T22:17:14.567Z,0.55
2023-02-19T22:19:41.864Z,0.38
2023-02-19T22:22:09.277Z,0.30
2023-02-19T22:24:36.226Z,0.60
2023-02-19T22:27:03.193Z,0.73
2023-02-19T22:29:30.330Z,0.38
2023-02-19T22:31:58.748Z,0.43
2023-02-19T22:34:25.834Z,0.30
2023-02-19T22:36:52.793Z,0.60
2023-02-19T22:39:20.482Z,0.50
2023-02-19T22:41:49.805Z,0.60
2023-02-19T22:44:16.867Z,1.33
2023-02-19T22:46:48.414Z,1.20
2023-02-19T22:49:17.608Z,1.37
2023-02-19T22:51:48.613Z,1.48
2023-02-19T22:54:16.272Z,1.33
2023-02-19T22:56:43.443Z,1.00
2023-02-19T22:59:11.207Z,0.90
2023-02-19T23:01:38.312Z,1.00
2023-02-19T23:04:05.645Z,0.52
2023-02-19T23:06:37.925Z,0.55
2023-02-19T23:09:06.119Z,0.52
2023-02-19T23:11:34.078Z,0.80
2023-02-19T23:14:01.090Z,0.97
2023-02-19T23:16:28.137Z,0.60
2023-02-19T23:18:55.437Z,0.52
2023-02-19T23:21:23.369Z,0.45
2023-02-19T23:23:51.958Z,0.80
2023-02-19T23:26:19.026Z,0.80
2023-02-19T23:28:46.463Z,0.82
2023-02-19T23:31:14.145Z,0.88
2023-02-19T23:33:41.675Z,0.80
2023-02-19T23:36:09.186Z,0.80
2023-02-19T23:38:36.944Z,0.80
2023-02-19T23:41:08.625Z,0.60
2023-02-19T23:43:35.560Z,0.50
2023-02-19T23:46:02.628Z,1.10
2023-02-19T23:48:29.783Z,0.95
2023-02-19T23:50:56.819Z,0.97
2023-02-19T23:53:24.124Z,0.70
2023-02-19T23:55:51.860Z,0.98
2023-02-19T23:58:20.259Z,1.00
